Time,TemperatureF,DewpointF,PressureIn,WindDirection,WindDirectionDegrees,WindSpeedMPH,WindSpeedGustMPH,Humidity,HourlyPrecipIn,Conditions,Clouds,dailyrainin,SoftwareType,DateUTC
2013-07-05 00:12:00,71.1,70.0,30.12,NW,317,0.0,-999.0,95,-99.99,,,0.03,weatherlink.com 1.10,2013-07-05 04:12:00,
2013-07-05 00:27:00,70.8,69.0,30.12,NW,317,0.0,-999.0,95,-99.99,,,0.03,weatherlink.com 1.10,2013-07-05 04:27:00,
2013-07-05 00:42:00,70.7,69.0,30.12,NW,317,0.0,-999.0,95,-99.99,,,0.03,weatherlink.com 1.10,2013-07-05 04:42:00,
2013-07-05 00:57:00,70.5,69.0,30.12,NW,317,0.0,-999.0,96,-99.99,,,0.03,weatherlink.com 1.10,2013-07-05 04:57:00,
2013-07-05 01:12:00,70.4,69.0,30.12,NW,317,0.0,-999.0,96,-99.99,,,0.03,weatherlink.com 1.10,2013-07-05 05:12:00,
2013-07-05 01:27:00,70.4,69.0,30.12,NW,317,0.0,-999.0,96,-99.99,,,0.03,weatherlink.com 1.10,2013-07-05 05:27:00,
2013-07-05 01:42:00,70.5,69.0,30.12,NW,317,0.0,-999.0,96,-99.99,,,0.03,weatherlink.com 1.10,2013-07-05 05:42:00,
2013-07-05 01:57:00,70.5,70.0,30.11,NW,317,0.0,-999.0,97,-99.99,,,0.03,weatherlink.com 1.10,2013-07-05 05:57:00,
2013-07-05 02:12:00,70.6,70.0,30.11,NW,317,0.0,-999.0,97,-99.99,,,0.03,weatherlink.com 1.10,2013-07-05 06:12:00,
2013-07-05 02:27:00,70.7,70.0,30.12,NW,317,0.0,-999.0,97,-99.99,,,0.03,weatherlink.com 1.10,2013-07-05 06:27:00,
2013-07-05 02:42:00,70.7,70.0,30.12,NW,317,0.0,-999.0,97,-99.99,,,0.03,weatherlink.com 1.10,2013-07-05 06:42:00,
2013-07-05 02:57:00,70.6,70.0,30.12,NW,317,0.0,-999.0,96,-99.99,,,0.03,weatherlink.com 1.10,2013-07-05 06:57:00,
2013-07-05 03:12:00,70.5,69.0,30.11,NW,317,0.0,-999.0,96,-99.99,,,0.03,weatherlink.com 1.10,2013-07-05 07:12:00,
2013-07-05 03:27:00,70.5,70.0,30.11,NW,317,0.0,-999.0,97,-99.99,,,0.03,weatherlink.com 1.10,2013-07-05 07:27:00,
2013-07-05 03:42:00,70.6,70.0,30.11,NW,317,0.0,-999.0,97,-99.99,,,0.03,weatherlink.com 1.10,2013-07-05 07:42:00,
2013-07-05 03:57:00,70.7,70.0,30.11,NW,317,0.0,-999.0,96,-99.99,,,0.03,weatherlink.com 1.10,2013-07-05 07:57:00,
2013-07-05 04:13:00,70.7,70.0,30.11,NW,317,0.0,-999.0,96,-99.99,,,0.00,weatherlink.com 1.10,2013-07-05 08:13:00,
2013-07-05 04:28:00,70.5,69.0,30.11,NW,317,0.0,-999.0,96,-99.99,,,0.00,weatherlink.com 1.10,2013-07-05 08:28:00,
2013-07-05 04:43:00,70.5,69.0,30.11,NW,317,0.0,-999.0,96,-99.99,,,0.00,weatherlink.com 1.10,2013-07-05 08:43:00,
2013-07-05 04:58:00,70.6,70.0,30.11,NW,317,0.0,-999.0,97,-99.99,,,0.00,weatherlink.com 1.10,2013-07-05 08:58:00,
2013-07-05 05:13:00,70.6,70.0,30.11,NW,317,0.0,-999.0,96,-99.99,,,0.00,weatherlink.com 1.10,2013-07-05 09:13:00,
2013-07-05 05:28:00,70.7,70.0,30.12,NW,317,0.0,-999.0,96,-99.99,,,0.00,weatherlink.com 1.10,2013-07-05 09:28:00,
2013-07-05 05:43:00,70.8,70.0,30.12,NW,317,0.0,-999.0,96,-99.99,,,0.00,weatherlink.com 1.10,2013-07-05 09:43:00,
2013-07-05 05:58:00,71.0,70.0,30.13,NW,317,0.0,-999.0,97,-99.99,,,0.00,weatherlink.com 1.10,2013-07-05 09:58:00,
2013-07-05 06:13:00,71.1,70.0,30.12,NW,317,0.0,-999.0,96,-99.99,,,0.00,weatherlink.com 1.10,2013-07-05 10:13:00,
2013-07-05 06:28:00,71.1,70.0,30.12,NW,317,0.0,-999.0,96,-99.99,,,0.00,weatherlink.com 1.10,2013-07-05 10:28:00,
2013-07-05 06:58:00,71.8,71.0,30.12,NW,317,0.0,-999.0,96,-99.99,,,0.00,weatherlink.com 1.10,2013-07-05 10:58:00,
2013-07-05 07:13:00,72.4,71.0,30.12,NW,317,0.0,-999.0,94,-99.99,,,0.00,weatherlink.com 1.10,2013-07-05 11:13:00,
2013-07-05 07:28:00,73.1,71.0,30.12,NW,317,2.0,-999.0,93,-99.99,,,0.00,weatherlink.com 1.10,2013-07-05 11:28:00,
2013-07-05 07:43:00,73.9,71.0,30.12,NW,317,2.0,-999.0,91,-99.99,,,0.00,weatherlink.com 1.10,2013-07-05 11:43:00,
2013-07-05 07:58:00,74.2,71.0,30.12,NW,317,0.0,-999.0,90,-99.99,,,0.00,weatherlink.com 1.10,2013-07-05 11:58:00,
2013-07-05 08:13:00,74.6,71.0,30.12,NW,317,0.0,-999.0,89,-99.99,,,0.00,weatherlink.com 1.10,2013-07-05 12:13:00,
2013-07-05 08:43:00,76.4,72.0,30.11,NW,317,0.0,-999.0,85,-99.99,,,0.00,weatherlink.com 1.10,2013-07-05 12:43:00,
2013-07-05 08:58:00,77.1,72.0,30.11,NW,317,1.0,-999.0,83,-99.99,,,0.00,weatherlink.com 1.10,2013-07-05 12:58:00,
2013-07-05 09:13:00,78.1,72.0,30.11,NE,34,0.0,-999.0,82,-99.99,,,0.00,weatherlink.com 1.10,2013-07-05 13:13:00,
2013-07-05 09:28:00,79.5,73.0,30.11,NE,34,0.0,-999.0,79,-99.99,,,0.00,weatherlink.com 1.10,2013-07-05 13:28:00,
2013-07-05 09:43:00,80.6,72.0,30.10,NE,48,0.0,-999.0,76,-99.99,,,0.00,weatherlink.com 1.10,2013-07-05 13:43:00,
2013-07-05 09:58:00,82.0,73.0,30.11,SE,136,6.0,-999.0,73,-99.99,,,0.00,weatherlink.com 1.10,2013-07-05 13:58:00,
2013-07-05 10:13:00,82.2,72.0,30.10,ESE,121,1.0,-999.0,71,-99.99,,,0.00,weatherlink.com 1.10,2013-07-05 14:13:00,
2013-07-05 10:28:00,82.4,72.0,30.10,SE,142,2.0,-999.0,70,-99.99,,,0.00,weatherlink.com 1.10,2013-07-05 14:28:00,
2013-07-05 10:58:00,82.5,73.0,30.10,SE,125,2.0,-999.0,72,-99.99,,,0.00,weatherlink.com 1.10,2013-07-05 14:58:00,
2013-07-05 11:13:00,83.9,73.0,30.10,SSE,153,1.0,-999.0,70,-99.99,,,0.00,weatherlink.com 1.10,2013-07-05 15:13:00,
2013-07-05 11:28:00,84.1,73.0,30.09,ESE,113,4.0,-999.0,70,-99.99,,,0.00,weatherlink.com 1.10,2013-07-05 15:28:00,
2013-07-05 11:43:00,83.4,73.0,30.09,ESE,103,1.0,-999.0,70,-99.99,,,0.00,weatherlink.com 1.10,2013-07-05 15:43:00,
2013-07-05 11:58:00,84.2,73.0,30.10,SSE,150,0.0,-999.0,70,-99.99,,,0.00,weatherlink.com 1.10,2013-07-05 15:58:00,
2013-07-05 12:14:00,85.2,73.0,30.09,SE,135,4.0,-999.0,67,-99.99,,,0.00,weatherlink.com 1.10,2013-07-05 16:14:00,
2013-07-05 12:40:00,85.1,73.0,30.09,SE,137,1.0,-999.0,67,-99.99,,,0.00,weatherlink.com 1.10,2013-07-05 16:40:00,
2013-07-05 12:59:00,85.3,73.0,30.08,East,96,0.0,-999.0,67,-99.99,,,0.00,weatherlink.com 1.10,2013-07-05 16:59:00,
2013-07-05 13:14:00,83.7,72.0,30.08,SSE,156,2.0,-999.0,68,-99.99,,,0.00,weatherlink.com 1.10,2013-07-05 17:14:00,
2013-07-05 13:29:00,85.9,71.0,30.07,SSW,202,0.0,-999.0,62,-99.99,,,0.00,weatherlink.com 1.10,2013-07-05 17:29:00,
2013-07-05 13:44:00,87.0,72.0,30.07,SW,223,4.0,-999.0,61,-99.99,,,0.00,weatherlink.com 1.10,2013-07-05 17:44:00,
2013-07-05 14:09:00,86.2,70.0,30.07,South,172,5.0,-999.0,59,-99.99,,,0.00,weatherlink.com 1.10,2013-07-05 18:09:00,
2013-07-05 14:29:00,85.5,70.0,30.07,SSE,165,2.0,-999.0,60,-99.99,,,0.00,weatherlink.com 1.10,2013-07-05 18:29:00,
2013-07-05 14:44:00,85.7,70.0,30.06,SW,226,4.0,-999.0,60,-99.99,,,0.00,weatherlink.com 1.10,2013-07-05 18:44:00,
2013-07-05 14:59:00,85.5,71.0,30.06,SE,128,2.0,-999.0,62,-99.99,,,0.00,weatherlink.com 1.10,2013-07-05 18:59:00,
2013-07-05 15:14:00,84.5,72.0,30.05,NW,305,9.0,-999.0,66,-99.99,,,0.00,weatherlink.com 1.10,2013-07-05 19:14:00,
2013-07-05 15:29:00,81.5,73.0,30.06,WSW,245,3.0,-999.0,75,-99.99,,,0.00,weatherlink.com 1.10,2013-07-05 19:29:00,
2013-07-05 15:44:00,81.5,73.0,30.06,WSW,250,2.0,-999.0,76,-99.99,,,0.00,weatherlink.com 1.10,2013-07-05 19:44:00,
2013-07-05 15:59:00,79.6,72.0,30.05,WNW,296,0.0,-999.0,78,-99.99,,,0.00,weatherlink.com 1.10,2013-07-05 19:59:00,
2013-07-05 16:14:00,80.6,73.0,30.05,NW,317,1.0,-999.0,78,-99.99,,,0.00,weatherlink.com 1.10,2013-07-05 20:14:00,
2013-07-05 16:29:00,81.4,73.0,30.04,NW,319,1.0,-999.0,76,-99.99,,,0.00,weatherlink.com 1.10,2013-07-05 20:29:00,
2013-07-05 16:44:00,77.5,73.0,30.05,West,259,2.0,-999.0,87,-99.99,,,0.06,weatherlink.com 1.10,2013-07-05 20:44:00,
2013-07-05 16:59:00,77.8,75.0,30.04,NNW,333,0.0,-999.0,90,-99.99,,,0.07,weatherlink.com 1.10,2013-07-05 20:59:00,
2013-07-05 17:14:00,78.4,75.0,30.04,West,275,0.0,-999.0,88,-99.99,,,0.07,weatherlink.com 1.10,2013-07-05 21:14:00,
2013-07-05 17:29:00,78.9,75.0,30.04,West,275,1.0,-999.0,87,-99.99,,,0.07,weatherlink.com 1.10,2013-07-05 21:29:00,
2013-07-05 17:44:00,79.2,75.0,30.04,NNW,327,0.0,-999.0,86,-99.99,,,0.07,weatherlink.com 1.10,2013-07-05 21:44:00,
2013-07-05 17:59:00,80.5,75.0,30.04,NW,315,1.0,-999.0,82,-99.99,,,0.07,weatherlink.com 1.10,2013-07-05 21:59:00,
2013-07-05 18:15:00,79.7,74.0,30.04,NNW,339,0.0,-999.0,83,-99.99,,,0.07,weatherlink.com 1.10,2013-07-05 22:15:00,
2013-07-05 18:30:00,79.2,73.0,30.04,North,355,0.0,-999.0,81,-99.99,,,0.07,weatherlink.com 1.10,2013-07-05 22:30:00,
2013-07-05 18:45:00,79.0,72.0,30.04,WSW,246,1.0,-999.0,78,-99.99,,,0.07,weatherlink.com 1.10,2013-07-05 22:45:00,
2013-07-05 19:00:00,78.9,72.0,30.05,WSW,246,0.0,-999.0,79,-99.99,,,0.07,weatherlink.com 1.10,2013-07-05 23:00:00,
2013-07-05 19:15:00,78.1,72.0,30.04,SW,221,0.0,-999.0,80,-99.99,,,0.07,weatherlink.com 1.10,2013-07-05 23:15:00,
2013-07-05 19:30:00,77.6,70.0,30.05,SW,229,0.0,-999.0,78,-99.99,,,0.07,weatherlink.com 1.10,2013-07-05 23:30:00,
2013-07-05 19:45:00,76.4,71.0,30.05,SW,221,0.0,-999.0,83,-99.99,,,0.09,weatherlink.com 1.10,2013-07-05 23:45:00,
2013-07-05 20:00:00,75.6,71.0,30.06,SW,221,0.0,-999.0,86,-99.99,,,0.09,weatherlink.com 1.10,2013-07-06 00:00:00,
2013-07-05 20:15:00,75.2,71.0,30.06,SW,221,0.0,-999.0,86,-99.99,,,0.09,weatherlink.com 1.10,2013-07-06 00:15:00,
2013-07-05 20:30:00,75.0,71.0,30.06,SW,221,0.0,-999.0,86,-99.99,,,0.09,weatherlink.com 1.10,2013-07-06 00:30:00,
2013-07-05 20:45:00,74.8,71.0,30.06,SW,221,0.0,-999.0,87,-99.99,,,0.09,weatherlink.com 1.10,2013-07-06 00:45:00,
2013-07-05 21:00:00,74.8,70.0,30.06,SW,221,0.0,-999.0,86,-99.99,,,0.09,weatherlink.com 1.10,2013-07-06 01:00:00,
2013-07-05 21:15:00,74.7,70.0,30.05,WSW,240,0.0,-999.0,85,-99.99,,,0.09,weatherlink.com 1.10,2013-07-06 01:15:00,
2013-07-05 21:30:00,74.6,70.0,30.06,WSW,240,0.0,-999.0,85,-99.99,,,0.09,weatherlink.com 1.10,2013-07-06 01:30:00,
2013-07-05 21:45:00,74.5,69.0,30.07,WSW,240,0.0,-999.0,84,-99.99,,,0.09,weatherlink.com 1.10,2013-07-06 01:45:00,
2013-07-05 22:00:00,74.4,69.0,30.07,WSW,240,0.0,-999.0,84,-99.99,,,0.09,weatherlink.com 1.10,2013-07-06 02:00:00,
2013-07-05 22:15:00,74.1,69.0,30.07,WSW,240,0.0,-999.0,85,-99.99,,,0.09,weatherlink.com 1.10,2013-07-06 02:15:00,
2013-07-05 22:30:00,73.7,69.0,30.07,WSW,240,0.0,-999.0,86,-99.99,,,0.09,weatherlink.com 1.10,2013-07-06 02:30:00,
2013-07-05 22:45:00,73.1,69.0,30.07,WSW,240,0.0,-999.0,87,-99.99,,,0.09,weatherlink.com 1.10,2013-07-06 02:45:00,
2013-07-05 23:00:00,72.7,69.0,30.07,WSW,240,0.0,-999.0,88,-99.99,,,0.09,weatherlink.com 1.10,2013-07-06 03:00:00,
2013-07-05 23:15:00,72.5,69.0,30.07,WSW,240,0.0,-999.0,89,-99.99,,,0.09,weatherlink.com 1.10,2013-07-06 03:15:00,
2013-07-05 23:30:00,72.2,69.0,30.07,WSW,240,0.0,-999.0,89,-99.99,,,0.09,weatherlink.com 1.10,2013-07-06 03:30:00,
2013-07-05 23:45:00,71.9,69.0,30.08,WSW,240,0.0,-999.0,90,-99.99,,,0.09,weatherlink.com 1.10,2013-07-06 03:45:00,